sensor_id;sensor_type;location;lat;lon;timestamp;P1;durP1;ratioP1;P2;durP2;ratioP2
38182;SDS011;23991;52.430;10.586;2023-04-09T00:01:57;63.88;;;30.00;;
38182;SDS011;23991;52.430;10.586;2023-04-09T00:04:25;53.63;;;27.75;;
38182;SDS011;23991;52.430;10.586;2023-04-09T00:06:56;60.88;;;28.80;;
38182;SDS011;23991;52.430;10.586;2023-04-09T00:09:24;55.67;;;26.60;;
38182;SDS011;23991;52.430;10.586;2023-04-09T00:11:53;53.35;;;26.67;;
38182;SDS011;23991;52.430;10.586;2023-04-09T00:14:18;61.45;;;28.02;;
38182;SDS011;23991;52.430;10.586;2023-04-09T00:16:44;56.25;;;28.40;;
38182;SDS011;23991;52.430;10.586;2023-04-09T00:19:09;51.40;;;25.45;;
38182;SDS011;23991;52.430;10.586;2023-04-09T00:21:40;48.65;;;24.42;;
38182;SDS011;23991;52.430;10.586;2023-04-09T00:24:06;47.45;;;24.48;;
38182;SDS011;23991;52.430;10.586;2023-04-09T00:26:32;46.83;;;24.83;;
38182;SDS011;23991;52.430;10.586;2023-04-09T00:29:00;44.17;;;23.48;;
38182;SDS011;23991;52.430;10.586;2023-04-09T00:31:28;44.42;;;23.77;;
38182;SDS011;23991;52.430;10.586;2023-04-09T00:33:54;45.10;;;23.58;;
38182;SDS011;23991;52.430;10.586;2023-04-09T00:36:25;43.13;;;21.67;;
38182;SDS011;23991;52.430;10.586;2023-04-09T00:38:51;45.78;;;25.30;;
38182;SDS011;23991;52.430;10.586;2023-04-09T00:41:17;50.25;;;25.48;;
38182;SDS011;23991;52.430;10.586;2023-04-09T00:43:43;64.90;;;31.05;;
38182;SDS011;23991;52.430;10.586;2023-04-09T00:46:09;61.28;;;29.73;;
38182;SDS011;23991;52.430;10.586;2023-04-09T00:48:35;61.20;;;27.65;;
38182;SDS011;23991;52.430;10.586;2023-04-09T00:51:00;54.97;;;27.65;;
38182;SDS011;23991;52.430;10.586;2023-04-09T00:53:26;51.47;;;26.10;;
38182;SDS011;23991;52.430;10.586;2023-04-09T00:55:52;56.17;;;28.38;;
38182;SDS011;23991;52.430;10.586;2023-04-09T00:58:19;60.92;;;27.90;;
38182;SDS011;23991;52.430;10.586;2023-04-09T01:00:45;52.00;;;27.15;;
38182;SDS011;23991;52.430;10.586;2023-04-09T01:03:10;49.75;;;26.98;;
38182;SDS011;23991;52.430;10.586;2023-04-09T01:09:02;69.80;;;30.20;;
38182;SDS011;23991;52.430;10.586;2023-04-09T01:17:37;65.95;;;28.35;;
38182;SDS011;23991;52.430;10.586;2023-04-09T01:20:15;51.30;;;26.00;;
38182;SDS011;23991;52.430;10.586;2023-04-09T01:23:04;51.38;;;25.20;;
38182;SDS011;23991;52.430;10.586;2023-04-09T01:28:41;52.00;;;25.38;;
38182;SDS011;23991;52.430;10.586;2023-04-09T01:31:10;43.47;;;23.17;;
38182;SDS011;23991;52.430;10.586;2023-04-09T01:33:44;43.03;;;23.08;;
38182;SDS011;23991;52.430;10.586;2023-04-09T01:36:10;42.45;;;22.95;;
38182;SDS011;23991;52.430;10.586;2023-04-09T01:38:41;37.95;;;21.90;;
38182;SDS011;23991;52.430;10.586;2023-04-09T01:41:13;42.55;;;21.20;;
38182;SDS011;23991;52.430;10.586;2023-04-09T01:43:45;43.15;;;22.77;;
38182;SDS011;23991;52.430;10.586;2023-04-09T01:46:12;42.63;;;22.13;;
38182;SDS011;23991;52.430;10.586;2023-04-09T01:48:40;44.03;;;23.58;;
38182;SDS011;23991;52.430;10.586;2023-04-09T01:51:06;42.40;;;22.42;;
38182;SDS011;23991;52.430;10.586;2023-04-09T01:53:34;38.13;;;20.55;;
38182;SDS011;23991;52.430;10.586;2023-04-09T01:56:00;42.65;;;22.50;;
38182;SDS011;23991;52.430;10.586;2023-04-09T01:58:27;40.85;;;20.85;;
38182;SDS011;23991;52.430;10.586;2023-04-09T02:00:57;40.00;;;20.15;;
38182;SDS011;23991;52.430;10.586;2023-04-09T02:03:40;38.60;;;19.60;;
38182;SDS011;23991;52.430;10.586;2023-04-09T02:06:24;33.53;;;19.27;;
38182;SDS011;23991;52.430;10.586;2023-04-09T02:09:05;35.08;;;18.40;;
38182;SDS011;23991;52.430;10.586;2023-04-09T02:11:33;37.40;;;20.90;;
38182;SDS011;23991;52.430;10.586;2023-04-09T02:14:02;32.47;;;19.45;;
38182;SDS011;23991;52.430;10.586;2023-04-09T02:16:29;34.03;;;18.85;;
38182;SDS011;23991;52.430;10.586;2023-04-09T02:18:56;34.33;;;19.77;;
38182;SDS011;23991;52.430;10.586;2023-04-09T02:21:25;33.75;;;18.23;;
38182;SDS011;23991;52.430;10.586;2023-04-09T02:23:51;33.75;;;19.17;;
38182;SDS011;23991;52.430;10.586;2023-04-09T02:26:17;36.20;;;18.40;;
38182;SDS011;23991;52.430;10.586;2023-04-09T02:28:42;32.17;;;18.17;;
38182;SDS011;23991;52.430;10.586;2023-04-09T02:31:08;33.35;;;19.00;;
38182;SDS011;23991;52.430;10.586;2023-04-09T02:33:35;31.55;;;18.92;;
38182;SDS011;23991;52.430;10.586;2023-04-09T02:36:00;31.00;;;18.65;;
38182;SDS011;23991;52.430;10.586;2023-04-09T02:38:26;34.65;;;19.27;;
38182;SDS011;23991;52.430;10.586;2023-04-09T02:40:52;31.40;;;18.38;;
38182;SDS011;23991;52.430;10.586;2023-04-09T02:43:17;33.85;;;19.58;;
38182;SDS011;23991;52.430;10.586;2023-04-09T02:45:43;42.58;;;18.42;;
38182;SDS011;23991;52.430;10.586;2023-04-09T02:48:08;36.75;;;18.10;;
38182;SDS011;23991;52.430;10.586;2023-04-09T02:50:34;27.45;;;16.92;;
38182;SDS011;23991;52.430;10.586;2023-04-09T02:52:59;29.50;;;17.63;;
38182;SDS011;23991;52.430;10.586;2023-04-09T02:55:25;30.75;;;17.73;;
38182;SDS011;23991;52.430;10.586;2023-04-09T02:57:51;30.13;;;16.90;;
38182;SDS011;23991;52.430;10.586;2023-04-09T03:00:16;28.52;;;17.67;;
38182;SDS011;23991;52.430;10.586;2023-04-09T03:02:42;29.63;;;16.85;;
38182;SDS011;23991;52.430;10.586;2023-04-09T03:05:07;29.73;;;17.77;;
38182;SDS011;23991;52.430;10.586;2023-04-09T03:07:33;30.17;;;17.70;;
38182;SDS011;23991;52.430;10.586;2023-04-09T03:09:59;27.95;;;17.65;;
38182;SDS011;23991;52.430;10.586;2023-04-09T03:12:24;34.05;;;17.70;;
38182;SDS011;23991;52.430;10.586;2023-04-09T03:14:50;28.88;;;16.95;;
38182;SDS011;23991;52.430;10.586;2023-04-09T03:17:16;28.27;;;15.93;;
38182;SDS011;23991;52.430;10.586;2023-04-09T03:19:42;29.25;;;16.13;;
38182;SDS011;23991;52.430;10.586;2023-04-09T03:22:07;24.60;;;14.10;;
38182;SDS011;23991;52.430;10.586;2023-04-09T03:24:33;29.83;;;15.07;;
38182;SDS011;23991;52.430;10.586;2023-04-09T03:27:01;25.98;;;15.77;;
38182;SDS011;23991;52.430;10.586;2023-04-09T03:29:27;23.35;;;14.43;;
38182;SDS011;23991;52.430;10.586;2023-04-09T03:31:55;24.40;;;14.32;;
38182;SDS011;23991;52.430;10.586;2023-04-09T03:34:24;25.45;;;14.75;;
38182;SDS011;23991;52.430;10.586;2023-04-09T03:36:52;22.55;;;14.40;;
38182;SDS011;23991;52.430;10.586;2023-04-09T03:39:21;27.10;;;14.97;;
38182;SDS011;23991;52.430;10.586;2023-04-09T03:41:46;24.48;;;14.75;;
38182;SDS011;23991;52.430;10.586;2023-04-09T03:44:12;20.90;;;13.52;;
38182;SDS011;23991;52.430;10.586;2023-04-09T03:46:38;22.60;;;14.05;;
38182;SDS011;23991;52.430;10.586;2023-04-09T03:49:06;25.40;;;14.85;;
38182;SDS011;23991;52.430;10.586;2023-04-09T03:51:32;22.40;;;13.80;;
38182;SDS011;23991;52.430;10.586;2023-04-09T03:53:57;23.48;;;14.23;;
38182;SDS011;23991;52.430;10.586;2023-04-09T03:56:23;21.58;;;14.05;;
38182;SDS011;23991;52.430;10.586;2023-04-09T03:58:48;25.60;;;15.30;;
38182;SDS011;23991;52.430;10.586;2023-04-09T04:01:14;26.13;;;15.30;;
38182;SDS011;23991;52.430;10.586;2023-04-09T04:03:39;27.50;;;15.30;;
38182;SDS011;23991;52.430;10.586;2023-04-09T04:06:08;22.42;;;14.27;;
38182;SDS011;23991;52.430;10.586;2023-04-09T04:08:33;21.08;;;13.10;;
38182;SDS011;23991;52.430;10.586;2023-04-09T04:11:02;23.63;;;13.65;;
38182;SDS011;23991;52.430;10.586;2023-04-09T04:13:29;23.02;;;14.10;;
38182;SDS011;23991;52.430;10.586;2023-04-09T04:15:54;26.15;;;14.45;;
38182;SDS011;23991;52.430;10.586;2023-04-09T04:18:20;29.30;;;16.17;;
38182;SDS011;23991;52.430;10.586;2023-04-09T04:20:46;52.33;;;22.35;;
38182;SDS011;23991;52.430;10.586;2023-04-09T04:23:11;53.15;;;23.50;;
38182;SDS011;23991;52.430;10.586;2023-04-09T04:25:39;49.08;;;24.17;;
38182;SDS011;23991;52.430;10.586;2023-04-09T04:28:06;48.65;;;22.77;;
38182;SDS011;23991;52.430;10.586;2023-04-09T04:30:31;47.83;;;22.35;;
38182;SDS011;23991;52.430;10.586;2023-04-09T04:33:00;53.90;;;23.42;;
38182;SDS011;23991;52.430;10.586;2023-04-09T04:35:31;42.45;;;21.42;;
38182;SDS011;23991;52.430;10.586;2023-04-09T04:37:56;45.97;;;20.55;;
38182;SDS011;23991;52.430;10.586;2023-04-09T04:40:22;40.25;;;19.45;;
38182;SDS011;23991;52.430;10.586;2023-04-09T04:42:47;40.75;;;20.30;;
38182;SDS011;23991;52.430;10.586;2023-04-09T04:45:13;31.00;;;18.55;;
38182;SDS011;23991;52.430;10.586;2023-04-09T04:47:38;34.28;;;19.13;;
38182;SDS011;23991;52.430;10.586;2023-04-09T04:50:04;36.22;;;20.10;;
38182;SDS011;23991;52.430;10.586;2023-04-09T04:52:31;35.70;;;19.00;;
38182;SDS011;23991;52.430;10.586;2023-04-09T04:54:59;35.83;;;18.90;;
38182;SDS011;23991;52.430;10.586;2023-04-09T04:57:25;36.80;;;18.67;;
38182;SDS011;23991;52.430;10.586;2023-04-09T04:59:53;34.08;;;18.50;;
38182;SDS011;23991;52.430;10.586;2023-04-09T05:02:18;30.95;;;18.42;;
38182;SDS011;23991;52.430;10.586;2023-04-09T05:04:47;33.35;;;18.60;;
38182;SDS011;23991;52.430;10.586;2023-04-09T05:07:15;30.17;;;17.65;;
38182;SDS011;23991;52.430;10.586;2023-04-09T05:09:41;32.10;;;19.08;;
38182;SDS011;23991;52.430;10.586;2023-04-09T05:12:08;30.70;;;17.00;;
38182;SDS011;23991;52.430;10.586;2023-04-09T05:14:37;31.85;;;18.08;;
38182;SDS011;23991;52.430;10.586;2023-04-09T05:17:06;30.80;;;18.00;;
38182;SDS011;23991;52.430;10.586;2023-04-09T05:19:52;31.23;;;18.23;;
38182;SDS011;23991;52.430;10.586;2023-04-09T05:22:36;35.75;;;20.27;;
38182;SDS011;23991;52.430;10.586;2023-04-09T05:25:10;34.90;;;20.52;;
38182;SDS011;23991;52.430;10.586;2023-04-09T05:27:40;37.47;;;19.92;;
38182;SDS011;23991;52.430;10.586;2023-04-09T05:30:13;39.60;;;21.48;;
38182;SDS011;23991;52.430;10.586;2023-04-09T05:32:45;39.33;;;21.02;;
38182;SDS011;23991;52.430;10.586;2023-04-09T05:35:20;36.97;;;20.52;;
38182;SDS011;23991;52.430;10.586;2023-04-09T05:38:04;35.38;;;19.92;;
38182;SDS011;23991;52.430;10.586;2023-04-09T05:40:32;34.80;;;19.55;;
38182;SDS011;23991;52.430;10.586;2023-04-09T05:43:03;36.10;;;20.10;;
38182;SDS011;23991;52.430;10.586;2023-04-09T05:45:31;29.85;;;18.52;;
38182;SDS011;23991;52.430;10.586;2023-04-09T05:48:01;31.55;;;19.35;;
38182;SDS011;23991;52.430;10.586;2023-04-09T05:52:59;33.88;;;20.10;;
38182;SDS011;23991;52.430;10.586;2023-04-09T06:02:18;33.47;;;18.88;;
38182;SDS011;23991;52.430;10.586;2023-04-09T06:04:46;31.65;;;18.60;;
38182;SDS011;23991;52.430;10.586;2023-04-09T06:07:12;34.25;;;18.50;;
38182;SDS011;23991;52.430;10.586;2023-04-09T06:09:37;32.63;;;18.65;;
38182;SDS011;23991;52.430;10.586;2023-04-09T06:12:03;37.30;;;20.23;;
38182;SDS011;23991;52.430;10.586;2023-04-09T06:14:29;39.63;;;20.55;;
38182;SDS011;23991;52.430;10.586;2023-04-09T06:16:57;36.63;;;21.00;;
38182;SDS011;23991;52.430;10.586;2023-04-09T06:19:23;38.17;;;19.65;;
38182;SDS011;23991;52.430;10.586;2023-04-09T06:21:49;34.67;;;18.95;;
38182;SDS011;23991;52.430;10.586;2023-04-09T06:24:14;37.40;;;19.45;;
38182;SDS011;23991;52.430;10.586;2023-04-09T06:26:40;31.10;;;17.85;;
38182;SDS011;23991;52.430;10.586;2023-04-09T06:29:06;33.08;;;17.85;;
38182;SDS011;23991;52.430;10.586;2023-04-09T06:31:31;36.92;;;18.75;;
38182;SDS011;23991;52.430;10.586;2023-04-09T06:33:57;34.53;;;19.55;;
38182;SDS011;23991;52.430;10.586;2023-04-09T06:36:23;33.67;;;19.27;;
38182;SDS011;23991;52.430;10.586;2023-04-09T06:38:48;34.90;;;18.40;;
38182;SDS011;23991;52.430;10.586;2023-04-09T06:41:14;34.20;;;17.98;;
38182;SDS011;23991;52.430;10.586;2023-04-09T06:43:40;35.92;;;19.45;;
38182;SDS011;23991;52.430;10.586;2023-04-09T06:46:05;31.52;;;17.55;;
38182;SDS011;23991;52.430;10.586;2023-04-09T06:48:31;34.03;;;18.25;;
38182;SDS011;23991;52.430;10.586;2023-04-09T06:50:57;33.90;;;18.80;;
38182;SDS011;23991;52.430;10.586;2023-04-09T06:53:22;33.85;;;18.85;;
38182;SDS011;23991;52.430;10.586;2023-04-09T06:55:48;32.67;;;18.30;;
38182;SDS011;23991;52.430;10.586;2023-04-09T06:58:13;31.45;;;17.80;;
38182;SDS011;23991;52.430;10.586;2023-04-09T07:00:40;32.85;;;18.77;;
38182;SDS011;23991;52.430;10.586;2023-04-09T07:03:05;32.50;;;18.63;;
38182;SDS011;23991;52.430;10.586;2023-04-09T07:05:46;35.75;;;19.08;;
38182;SDS011;23991;52.430;10.586;2023-04-09T07:08:15;39.70;;;19.35;;
38182;SDS011;23991;52.430;10.586;2023-04-09T07:10:41;34.83;;;19.38;;
38182;SDS011;23991;52.430;10.586;2023-04-09T07:13:11;32.35;;;18.77;;
38182;SDS011;23991;52.430;10.586;2023-04-09T07:15:36;39.28;;;20.92;;
38182;SDS011;23991;52.430;10.586;2023-04-09T07:18:02;36.13;;;20.63;;
38182;SDS011;23991;52.430;10.586;2023-04-09T07:20:27;32.83;;;19.80;;
38182;SDS011;23991;52.430;10.586;2023-04-09T07:22:53;36.40;;;20.15;;
38182;SDS011;23991;52.430;10.586;2023-04-09T07:25:19;36.22;;;20.48;;
38182;SDS011;23991;52.430;10.586;2023-04-09T07:27:45;37.15;;;18.95;;
38182;SDS011;23991;52.430;10.586;2023-04-09T07:30:11;34.67;;;19.65;;
38182;SDS011;23991;52.430;10.586;2023-04-09T07:32:36;35.80;;;19.67;;
38182;SDS011;23991;52.430;10.586;2023-04-09T07:35:03;33.58;;;18.35;;
38182;SDS011;23991;52.430;10.586;2023-04-09T07:37:30;32.28;;;17.40;;
38182;SDS011;23991;52.430;10.586;2023-04-09T07:39:56;33.00;;;18.10;;
38182;SDS011;23991;52.430;10.586;2023-04-09T07:42:21;33.90;;;19.13;;
38182;SDS011;23991;52.430;10.586;2023-04-09T07:44:47;35.40;;;18.95;;
38182;SDS011;23991;52.430;10.586;2023-04-09T07:47:13;34.47;;;19.05;;
38182;SDS011;23991;52.430;10.586;2023-04-09T07:49:38;39.63;;;19.80;;
38182;SDS011;23991;52.430;10.586;2023-04-09T07:52:04;33.40;;;18.75;;
38182;SDS011;23991;52.430;10.586;2023-04-09T07:54:31;38.85;;;20.67;;
38182;SDS011;23991;52.430;10.586;2023-04-09T07:56:56;36.72;;;19.70;;
38182;SDS011;23991;52.430;10.586;2023-04-09T07:59:23;35.63;;;19.27;;
38182;SDS011;23991;52.430;10.586;2023-04-09T08:01:49;35.70;;;19.33;;
38182;SDS011;23991;52.430;10.586;2023-04-09T08:04:14;36.92;;;19.95;;
38182;SDS011;23991;52.430;10.586;2023-04-09T08:06:40;36.90;;;19.15;;
38182;SDS011;23991;52.430;10.586;2023-04-09T08:09:13;31.52;;;17.92;;
38182;SDS011;23991;52.430;10.586;2023-04-09T08:31:52;37.72;;;21.00;;
38182;SDS011;23991;52.430;10.586;2023-04-09T11:05:41;30.15;;;18.90;;
38182;SDS011;23991;52.430;10.586;2023-04-09T12:03:00;27.73;;;19.40;;
38182;SDS011;23991;52.430;10.586;2023-04-09T12:05:27;25.17;;;18.23;;
38182;SDS011;23991;52.430;10.586;2023-04-09T12:07:56;27.30;;;18.77;;
38182;SDS011;23991;52.430;10.586;2023-04-09T12:10:27;27.33;;;18.58;;
38182;SDS011;23991;52.430;10.586;2023-04-09T12:12:54;26.95;;;19.55;;
38182;SDS011;23991;52.430;10.586;2023-04-09T12:15:25;25.92;;;18.92;;
38182;SDS011;23991;52.430;10.586;2023-04-09T12:22:55;26.25;;;19.13;;
38182;SDS011;23991;52.430;10.586;2023-04-09T12:25:22;28.05;;;20.05;;
38182;SDS011;23991;52.430;10.586;2023-04-09T12:27:47;23.55;;;18.48;;
38182;SDS011;23991;52.430;10.586;2023-04-09T12:30:13;27.10;;;19.75;;
38182;SDS011;23991;52.430;10.586;2023-04-09T12:32:39;28.58;;;20.02;;
38182;SDS011;23991;52.430;10.586;2023-04-09T12:35:06;26.75;;;20.15;;
38182;SDS011;23991;52.430;10.586;2023-04-09T12:37:32;25.17;;;19.30;;
38182;SDS011;23991;52.430;10.586;2023-04-09T12:39:58;26.38;;;19.92;;
38182;SDS011;23991;52.430;10.586;2023-04-09T12:42:26;25.40;;;18.27;;
38182;SDS011;23991;52.430;10.586;2023-04-09T12:44:52;24.42;;;18.75;;
38182;SDS011;23991;52.430;10.586;2023-04-09T12:47:20;23.92;;;19.02;;
38182;SDS011;23991;52.430;10.586;2023-04-09T12:49:46;25.15;;;19.00;;
38182;SDS011;23991;52.430;10.586;2023-04-09T12:52:14;27.13;;;20.35;;
38182;SDS011;23991;52.430;10.586;2023-04-09T12:54:40;24.35;;;18.52;;
38182;SDS011;23991;52.430;10.586;2023-04-09T12:57:05;24.85;;;19.60;;
38182;SDS011;23991;52.430;10.586;2023-04-09T12:59:31;29.48;;;20.83;;
38182;SDS011;23991;52.430;10.586;2023-04-09T13:01:57;24.73;;;19.70;;
38182;SDS011;23991;52.430;10.586;2023-04-09T13:04:23;25.85;;;20.05;;
38182;SDS011;23991;52.430;10.586;2023-04-09T13:06:51;26.73;;;20.05;;
38182;SDS011;23991;52.430;10.586;2023-04-09T13:09:17;28.15;;;20.42;;
38182;SDS011;23991;52.430;10.586;2023-04-09T13:11:42;26.45;;;19.33;;
38182;SDS011;23991;52.430;10.586;2023-04-09T13:14:08;28.02;;;20.40;;
38182;SDS011;23991;52.430;10.586;2023-04-09T13:16:37;24.25;;;19.17;;
38182;SDS011;23991;52.430;10.586;2023-04-09T13:19:04;26.55;;;20.80;;
38182;SDS011;23991;52.430;10.586;2023-04-09T13:21:30;23.65;;;18.52;;
38182;SDS011;23991;52.430;10.586;2023-04-09T13:23:56;22.30;;;18.80;;
38182;SDS011;23991;52.430;10.586;2023-04-09T13:26:21;25.58;;;19.73;;
38182;SDS011;23991;52.430;10.586;2023-04-09T13:28:47;24.85;;;19.05;;
38182;SDS011;23991;52.430;10.586;2023-04-09T13:31:12;25.77;;;19.95;;
38182;SDS011;23991;52.430;10.586;2023-04-09T13:53:04;24.50;;;18.60;;
38182;SDS011;23991;52.430;10.586;2023-04-09T15:33:00;22.80;;;17.98;;
38182;SDS011;23991;52.430;10.586;2023-04-09T15:35:29;23.45;;;17.83;;
38182;SDS011;23991;52.430;10.586;2023-04-09T15:37:57;21.98;;;17.35;;
38182;SDS011;23991;52.430;10.586;2023-04-09T15:40:43;21.17;;;17.25;;
38182;SDS011;23991;52.430;10.586;2023-04-09T16:23:00;22.33;;;16.92;;
38182;SDS011;23991;52.430;10.586;2023-04-09T16:25:26;23.85;;;18.20;;
38182;SDS011;23991;52.430;10.586;2023-04-09T16:31:23;24.45;;;17.70;;
38182;SDS011;23991;52.430;10.586;2023-04-09T16:44:00;23.42;;;18.00;;
38182;SDS011;23991;52.430;10.586;2023-04-09T16:46:25;23.27;;;17.83;;
38182;SDS011;23991;52.430;10.586;2023-04-09T16:48:51;22.77;;;17.98;;
38182;SDS011;23991;52.430;10.586;2023-04-09T16:51:16;21.50;;;17.00;;
38182;SDS011;23991;52.430;10.586;2023-04-09T17:00:35;24.80;;;17.65;;
38182;SDS011;23991;52.430;10.586;2023-04-09T18:23:04;33.00;;;24.08;;
38182;SDS011;23991;52.430;10.586;2023-04-09T23:06:38;41.03;;;24.02;;
